sensor_id;sensor_type;location;lat;lon;timestamp;P1;durP1;ratioP1;P2;durP2;ratioP2
4835;SDS011;66719;51.226;6.902;2024-02-26T00:00:28;6.60;;;1.80;;
4835;SDS011;66719;51.226;6.902;2024-02-26T00:02:56;8.33;;;1.40;;
4835;SDS011;66719;51.226;6.902;2024-02-26T00:05:23;8.33;;;1.90;;
4835;SDS011;66719;51.226;6.902;2024-02-26T00:07:49;8.93;;;1.40;;
4835;SDS011;66719;51.226;6.902;2024-02-26T00:10:16;7.27;;;1.87;;
4835;SDS011;66719;51.226;6.902;2024-02-26T00:12:43;7.10;;;1.57;;
4835;SDS011;66719;51.226;6.902;2024-02-26T00:15:09;7.07;;;1.73;;
4835;SDS011;66719;51.226;6.902;2024-02-26T00:17:36;5.97;;;1.33;;
4835;SDS011;66719;51.226;6.902;2024-02-26T00:20:04;7.97;;;1.77;;
4835;SDS011;66719;51.226;6.902;2024-02-26T00:22:35;7.83;;;1.70;;
4835;SDS011;66719;51.226;6.902;2024-02-26T00:25:02;6.57;;;1.50;;
4835;SDS011;66719;51.226;6.902;2024-02-26T00:27:29;7.27;;;1.50;;
4835;SDS011;66719;51.226;6.902;2024-02-26T00:29:55;7.10;;;1.50;;
4835;SDS011;66719;51.226;6.902;2024-02-26T00:32:22;8.07;;;1.90;;
4835;SDS011;66719;51.226;6.902;2024-02-26T00:34:49;6.67;;;1.30;;
4835;SDS011;66719;51.226;6.902;2024-02-26T00:37:17;6.77;;;1.40;;
4835;SDS011;66719;51.226;6.902;2024-02-26T00:39:43;7.30;;;1.40;;
4835;SDS011;66719;51.226;6.902;2024-02-26T00:42:11;6.23;;;1.40;;
4835;SDS011;66719;51.226;6.902;2024-02-26T00:44:37;7.57;;;1.60;;
4835;SDS011;66719;51.226;6.902;2024-02-26T00:47:04;6.50;;;1.50;;
4835;SDS011;66719;51.226;6.902;2024-02-26T00:49:31;7.07;;;1.60;;
4835;SDS011;66719;51.226;6.902;2024-02-26T00:51:58;7.00;;;1.50;;
4835;SDS011;66719;51.226;6.902;2024-02-26T00:54:24;6.40;;;1.30;;
4835;SDS011;66719;51.226;6.902;2024-02-26T00:56:51;7.57;;;1.60;;
4835;SDS011;66719;51.226;6.902;2024-02-26T00:59:18;6.30;;;1.30;;
4835;SDS011;66719;51.226;6.902;2024-02-26T01:01:44;7.33;;;1.40;;
4835;SDS011;66719;51.226;6.902;2024-02-26T01:04:11;7.97;;;1.53;;
4835;SDS011;66719;51.226;6.902;2024-02-26T01:06:38;6.60;;;1.40;;
4835;SDS011;66719;51.226;6.902;2024-02-26T01:09:05;6.83;;;1.33;;
4835;SDS011;66719;51.226;6.902;2024-02-26T01:11:32;7.20;;;1.60;;
4835;SDS011;66719;51.226;6.902;2024-02-26T01:13:59;7.10;;;1.53;;
4835;SDS011;66719;51.226;6.902;2024-02-26T01:16:25;8.00;;;1.50;;
4835;SDS011;66719;51.226;6.902;2024-02-26T01:18:55;6.60;;;1.40;;
4835;SDS011;66719;51.226;6.902;2024-02-26T01:21:21;7.30;;;1.50;;
4835;SDS011;66719;51.226;6.902;2024-02-26T01:23:48;6.73;;;1.47;;
4835;SDS011;66719;51.226;6.902;2024-02-26T01:26:15;8.13;;;1.57;;
4835;SDS011;66719;51.226;6.902;2024-02-26T01:28:41;11.60;;;1.73;;
4835;SDS011;66719;51.226;6.902;2024-02-26T01:31:09;6.97;;;1.50;;
4835;SDS011;66719;51.226;6.902;2024-02-26T01:33:36;7.00;;;1.67;;
4835;SDS011;66719;51.226;6.902;2024-02-26T01:36:03;8.30;;;1.60;;
4835;SDS011;66719;51.226;6.902;2024-02-26T01:38:31;6.50;;;1.50;;
4835;SDS011;66719;51.226;6.902;2024-02-26T01:40:58;7.80;;;1.97;;
4835;SDS011;66719;51.226;6.902;2024-02-26T01:43:24;7.23;;;1.70;;
4835;SDS011;66719;51.226;6.902;2024-02-26T01:45:51;8.30;;;2.07;;
4835;SDS011;66719;51.226;6.902;2024-02-26T01:48:18;10.50;;;1.67;;
4835;SDS011;66719;51.226;6.902;2024-02-26T01:50:44;6.90;;;2.07;;
4835;SDS011;66719;51.226;6.902;2024-02-26T01:53:11;8.40;;;1.97;;
4835;SDS011;66719;51.226;6.902;2024-02-26T01:55:39;10.00;;;1.67;;
4835;SDS011;66719;51.226;6.902;2024-02-26T01:58:06;8.47;;;2.13;;
4835;SDS011;66719;51.226;6.902;2024-02-26T02:00:33;11.07;;;2.00;;
4835;SDS011;66719;51.226;6.902;2024-02-26T02:03:01;7.33;;;1.90;;
4835;SDS011;66719;51.226;6.902;2024-02-26T02:05:30;8.50;;;1.90;;
4835;SDS011;66719;51.226;6.902;2024-02-26T02:07:57;7.30;;;2.00;;
4835;SDS011;66719;51.226;6.902;2024-02-26T02:10:23;7.27;;;1.60;;
4835;SDS011;66719;51.226;6.902;2024-02-26T02:12:52;7.20;;;1.93;;
4835;SDS011;66719;51.226;6.902;2024-02-26T02:15:19;6.90;;;1.60;;
4835;SDS011;66719;51.226;6.902;2024-02-26T02:17:47;7.17;;;1.80;;
4835;SDS011;66719;51.226;6.902;2024-02-26T02:20:17;8.00;;;1.80;;
4835;SDS011;66719;51.226;6.902;2024-02-26T02:22:45;7.53;;;1.53;;
4835;SDS011;66719;51.226;6.902;2024-02-26T02:25:12;5.90;;;1.50;;
4835;SDS011;66719;51.226;6.902;2024-02-26T02:27:40;6.30;;;1.70;;
4835;SDS011;66719;51.226;6.902;2024-02-26T02:30:08;6.10;;;1.50;;
4835;SDS011;66719;51.226;6.902;2024-02-26T02:32:37;6.43;;;1.43;;
4835;SDS011;66719;51.226;6.902;2024-02-26T02:35:07;6.67;;;1.33;;
4835;SDS011;66719;51.226;6.902;2024-02-26T02:37:36;7.60;;;1.83;;
4835;SDS011;66719;51.226;6.902;2024-02-26T02:40:03;6.30;;;1.77;;
4835;SDS011;66719;51.226;6.902;2024-02-26T02:42:31;6.53;;;1.77;;
4835;SDS011;66719;51.226;6.902;2024-02-26T02:44:58;7.77;;;1.60;;
4835;SDS011;66719;51.226;6.902;2024-02-26T02:47:24;8.43;;;1.50;;
4835;SDS011;66719;51.226;6.902;2024-02-26T02:49:51;6.63;;;1.70;;
4835;SDS011;66719;51.226;6.902;2024-02-26T02:52:17;7.00;;;1.70;;
4835;SDS011;66719;51.226;6.902;2024-02-26T02:54:44;6.50;;;1.67;;
4835;SDS011;66719;51.226;6.902;2024-02-26T02:57:13;7.10;;;1.80;;
4835;SDS011;66719;51.226;6.902;2024-02-26T02:59:40;6.33;;;1.60;;
4835;SDS011;66719;51.226;6.902;2024-02-26T03:02:06;6.90;;;1.90;;
4835;SDS011;66719;51.226;6.902;2024-02-26T03:04:33;6.40;;;1.60;;
4835;SDS011;66719;51.226;6.902;2024-02-26T03:07:00;7.10;;;1.73;;
4835;SDS011;66719;51.226;6.902;2024-02-26T03:09:27;6.97;;;1.50;;
4835;SDS011;66719;51.226;6.902;2024-02-26T03:11:53;7.30;;;1.73;;
4835;SDS011;66719;51.226;6.902;2024-02-26T03:14:20;6.57;;;1.60;;
4835;SDS011;66719;51.226;6.902;2024-02-26T03:16:47;5.80;;;1.40;;
4835;SDS011;66719;51.226;6.902;2024-02-26T03:19:16;7.40;;;1.70;;
4835;SDS011;66719;51.226;6.902;2024-02-26T03:21:43;7.10;;;1.73;;
4835;SDS011;66719;51.226;6.902;2024-02-26T03:24:10;7.50;;;2.03;;
4835;SDS011;66719;51.226;6.902;2024-02-26T03:26:38;6.40;;;1.53;;
4835;SDS011;66719;51.226;6.902;2024-02-26T03:29:05;7.23;;;1.77;;
4835;SDS011;66719;51.226;6.902;2024-02-26T03:31:32;8.97;;;1.87;;
4835;SDS011;66719;51.226;6.902;2024-02-26T03:33:58;6.67;;;1.73;;
4835;SDS011;66719;51.226;6.902;2024-02-26T03:36:25;6.23;;;1.83;;
4835;SDS011;66719;51.226;6.902;2024-02-26T03:38:53;6.53;;;1.50;;
4835;SDS011;66719;51.226;6.902;2024-02-26T03:41:19;6.57;;;1.53;;
4835;SDS011;66719;51.226;6.902;2024-02-26T03:43:46;8.23;;;1.67;;
4835;SDS011;66719;51.226;6.902;2024-02-26T03:46:13;9.23;;;1.87;;
4835;SDS011;66719;51.226;6.902;2024-02-26T03:48:40;8.50;;;1.50;;
4835;SDS011;66719;51.226;6.902;2024-02-26T03:51:08;6.73;;;1.40;;
4835;SDS011;66719;51.226;6.902;2024-02-26T03:53:37;8.23;;;1.40;;
4835;SDS011;66719;51.226;6.902;2024-02-26T03:56:04;6.77;;;1.93;;
4835;SDS011;66719;51.226;6.902;2024-02-26T03:58:32;7.20;;;1.63;;
4835;SDS011;66719;51.226;6.902;2024-02-26T04:00:59;6.10;;;1.30;;
4835;SDS011;66719;51.226;6.902;2024-02-26T04:03:26;6.57;;;1.60;;
4835;SDS011;66719;51.226;6.902;2024-02-26T04:05:53;6.37;;;1.60;;
4835;SDS011;66719;51.226;6.902;2024-02-26T04:08:20;5.80;;;1.67;;
4835;SDS011;66719;51.226;6.902;2024-02-26T04:10:46;6.03;;;1.70;;
4835;SDS011;66719;51.226;6.902;2024-02-26T04:13:13;5.80;;;1.50;;
4835;SDS011;66719;51.226;6.902;2024-02-26T04:15:39;6.43;;;1.77;;
4835;SDS011;66719;51.226;6.902;2024-02-26T04:18:06;6.37;;;1.93;;
4835;SDS011;66719;51.226;6.902;2024-02-26T04:20:33;6.63;;;1.77;;
4835;SDS011;66719;51.226;6.902;2024-02-26T04:22:59;8.63;;;1.73;;
4835;SDS011;66719;51.226;6.902;2024-02-26T04:25:26;8.37;;;1.87;;
4835;SDS011;66719;51.226;6.902;2024-02-26T04:27:54;6.87;;;1.73;;
4835;SDS011;66719;51.226;6.902;2024-02-26T04:30:21;6.33;;;1.80;;
4835;SDS011;66719;51.226;6.902;2024-02-26T04:32:47;7.07;;;1.73;;
4835;SDS011;66719;51.226;6.902;2024-02-26T04:35:14;8.77;;;2.17;;
4835;SDS011;66719;51.226;6.902;2024-02-26T04:37:41;7.70;;;2.23;;
4835;SDS011;66719;51.226;6.902;2024-02-26T04:40:07;6.07;;;1.80;;
4835;SDS011;66719;51.226;6.902;2024-02-26T04:42:34;6.40;;;1.80;;
4835;SDS011;66719;51.226;6.902;2024-02-26T04:45:01;7.00;;;2.03;;
4835;SDS011;66719;51.226;6.902;2024-02-26T04:47:28;7.53;;;2.00;;
4835;SDS011;66719;51.226;6.902;2024-02-26T04:49:56;7.70;;;2.03;;
4835;SDS011;66719;51.226;6.902;2024-02-26T04:52:22;6.40;;;2.00;;
4835;SDS011;66719;51.226;6.902;2024-02-26T04:54:49;6.20;;;1.80;;
4835;SDS011;66719;51.226;6.902;2024-02-26T04:57:16;7.13;;;1.77;;
4835;SDS011;66719;51.226;6.902;2024-02-26T04:59:44;7.73;;;2.00;;
4835;SDS011;66719;51.226;6.902;2024-02-26T05:02:12;7.60;;;1.87;;
4835;SDS011;66719;51.226;6.902;2024-02-26T05:04:39;6.20;;;1.67;;
4835;SDS011;66719;51.226;6.902;2024-02-26T05:07:06;6.40;;;2.23;;
4835;SDS011;66719;51.226;6.902;2024-02-26T05:09:33;7.40;;;2.03;;
4835;SDS011;66719;51.226;6.902;2024-02-26T05:12:00;6.00;;;1.70;;
4835;SDS011;66719;51.226;6.902;2024-02-26T05:14:26;7.27;;;1.90;;
4835;SDS011;66719;51.226;6.902;2024-02-26T05:16:53;7.40;;;2.07;;
4835;SDS011;66719;51.226;6.902;2024-02-26T05:19:19;6.83;;;2.00;;
4835;SDS011;66719;51.226;6.902;2024-02-26T05:21:46;9.00;;;2.30;;
4835;SDS011;66719;51.226;6.902;2024-02-26T05:24:15;8.27;;;2.30;;
4835;SDS011;66719;51.226;6.902;2024-02-26T05:26:45;6.27;;;2.00;;
4835;SDS011;66719;51.226;6.902;2024-02-26T05:29:12;16.23;;;7.97;;
4835;SDS011;66719;51.226;6.902;2024-02-26T05:31:38;8.10;;;2.37;;
4835;SDS011;66719;51.226;6.902;2024-02-26T05:34:06;7.70;;;2.00;;
4835;SDS011;66719;51.226;6.902;2024-02-26T05:36:33;6.80;;;2.00;;
4835;SDS011;66719;51.226;6.902;2024-02-26T05:39:00;7.80;;;2.63;;
4835;SDS011;66719;51.226;6.902;2024-02-26T05:41:27;6.93;;;2.40;;
4835;SDS011;66719;51.226;6.902;2024-02-26T05:43:54;12.80;;;2.77;;
4835;SDS011;66719;51.226;6.902;2024-02-26T05:46:21;8.60;;;2.10;;
4835;SDS011;66719;51.226;6.902;2024-02-26T05:48:52;7.20;;;2.20;;
4835;SDS011;66719;51.226;6.902;2024-02-26T05:51:19;9.03;;;2.43;;
4835;SDS011;66719;51.226;6.902;2024-02-26T05:53:46;14.00;;;2.40;;
4835;SDS011;66719;51.226;6.902;2024-02-26T05:56:14;11.43;;;5.23;;
4835;SDS011;66719;51.226;6.902;2024-02-26T05:58:40;38.40;;;22.27;;
4835;SDS011;66719;51.226;6.902;2024-02-26T06:01:07;9.77;;;2.60;;
4835;SDS011;66719;51.226;6.902;2024-02-26T06:03:34;7.63;;;3.00;;
4835;SDS011;66719;51.226;6.902;2024-02-26T06:06:00;7.67;;;2.67;;
4835;SDS011;66719;51.226;6.902;2024-02-26T06:08:28;7.83;;;2.47;;
4835;SDS011;66719;51.226;6.902;2024-02-26T06:10:55;9.50;;;2.60;;
4835;SDS011;66719;51.226;6.902;2024-02-26T06:13:21;11.10;;;3.00;;
4835;SDS011;66719;51.226;6.902;2024-02-26T06:15:48;9.03;;;3.03;;
4835;SDS011;66719;51.226;6.902;2024-02-26T06:18:15;9.70;;;3.20;;
4835;SDS011;66719;51.226;6.902;2024-02-26T06:20:42;15.30;;;6.10;;
4835;SDS011;66719;51.226;6.902;2024-02-26T06:23:09;9.10;;;2.67;;
4835;SDS011;66719;51.226;6.902;2024-02-26T06:25:36;7.53;;;2.83;;
4835;SDS011;66719;51.226;6.902;2024-02-26T06:28:03;8.30;;;2.70;;
4835;SDS011;66719;51.226;6.902;2024-02-26T06:30:29;13.63;;;3.30;;
4835;SDS011;66719;51.226;6.902;2024-02-26T06:32:56;9.67;;;2.90;;
4835;SDS011;66719;51.226;6.902;2024-02-26T06:35:23;9.77;;;2.60;;
4835;SDS011;66719;51.226;6.902;2024-02-26T06:37:50;7.90;;;2.97;;
4835;SDS011;66719;51.226;6.902;2024-02-26T06:40:19;9.93;;;3.43;;
4835;SDS011;66719;51.226;6.902;2024-02-26T06:42:45;8.30;;;2.70;;
4835;SDS011;66719;51.226;6.902;2024-02-26T06:45:15;8.17;;;3.00;;
4835;SDS011;66719;51.226;6.902;2024-02-26T06:47:41;8.10;;;3.17;;
4835;SDS011;66719;51.226;6.902;2024-02-26T06:50:11;8.93;;;2.93;;
4835;SDS011;66719;51.226;6.902;2024-02-26T06:52:38;8.13;;;3.17;;
4835;SDS011;66719;51.226;6.902;2024-02-26T06:55:04;7.80;;;2.87;;
4835;SDS011;66719;51.226;6.902;2024-02-26T06:57:34;7.83;;;2.73;;
4835;SDS011;66719;51.226;6.902;2024-02-26T07:00:01;7.87;;;2.80;;
4835;SDS011;66719;51.226;6.902;2024-02-26T07:02:30;9.30;;;2.83;;
4835;SDS011;66719;51.226;6.902;2024-02-26T07:04:57;6.70;;;2.70;;
4835;SDS011;66719;51.226;6.902;2024-02-26T07:07:24;13.97;;;3.57;;
4835;SDS011;66719;51.226;6.902;2024-02-26T07:09:51;8.27;;;2.80;;
4835;SDS011;66719;51.226;6.902;2024-02-26T07:12:18;8.03;;;3.37;;
4835;SDS011;66719;51.226;6.902;2024-02-26T07:14:47;9.50;;;3.43;;
4835;SDS011;66719;51.226;6.902;2024-02-26T07:17:15;10.97;;;3.30;;
4835;SDS011;66719;51.226;6.902;2024-02-26T07:19:42;19.57;;;10.70;;
4835;SDS011;66719;51.226;6.902;2024-02-26T07:22:09;8.53;;;3.53;;
4835;SDS011;66719;51.226;6.902;2024-02-26T07:24:35;11.70;;;2.90;;
4835;SDS011;66719;51.226;6.902;2024-02-26T07:27:02;7.77;;;2.70;;
4835;SDS011;66719;51.226;6.902;2024-02-26T07:29:29;12.17;;;5.00;;
4835;SDS011;66719;51.226;6.902;2024-02-26T07:31:56;9.97;;;3.80;;
4835;SDS011;66719;51.226;6.902;2024-02-26T07:34:22;10.37;;;3.77;;
4835;SDS011;66719;51.226;6.902;2024-02-26T07:36:54;11.50;;;3.87;;
4835;SDS011;66719;51.226;6.902;2024-02-26T07:39:20;9.07;;;3.43;;
4835;SDS011;66719;51.226;6.902;2024-02-26T07:41:47;10.23;;;3.30;;
4835;SDS011;66719;51.226;6.902;2024-02-26T07:44:16;9.67;;;3.03;;
4835;SDS011;66719;51.226;6.902;2024-02-26T07:46:43;8.90;;;3.40;;
4835;SDS011;66719;51.226;6.902;2024-02-26T07:49:09;10.17;;;3.43;;
4835;SDS011;66719;51.226;6.902;2024-02-26T07:51:36;7.67;;;2.60;;
4835;SDS011;66719;51.226;6.902;2024-02-26T07:54:03;10.10;;;2.67;;
4835;SDS011;66719;51.226;6.902;2024-02-26T07:56:30;9.30;;;3.00;;
4835;SDS011;66719;51.226;6.902;2024-02-26T07:58:57;11.13;;;2.73;;
4835;SDS011;66719;51.226;6.902;2024-02-26T08:01:23;10.43;;;3.20;;
4835;SDS011;66719;51.226;6.902;2024-02-26T08:03:55;10.50;;;3.03;;
4835;SDS011;66719;51.226;6.902;2024-02-26T08:06:22;9.10;;;2.77;;
4835;SDS011;66719;51.226;6.902;2024-02-26T08:08:50;9.37;;;3.07;;
4835;SDS011;66719;51.226;6.902;2024-02-26T08:11:16;10.47;;;2.93;;
4835;SDS011;66719;51.226;6.902;2024-02-26T08:13:43;9.30;;;3.20;;
4835;SDS011;66719;51.226;6.902;2024-02-26T08:16:10;9.50;;;2.80;;
4835;SDS011;66719;51.226;6.902;2024-02-26T08:18:36;12.50;;;3.30;;
4835;SDS011;66719;51.226;6.902;2024-02-26T08:21:03;7.60;;;3.20;;
4835;SDS011;66719;51.226;6.902;2024-02-26T08:23:30;8.93;;;2.80;;
4835;SDS011;66719;51.226;6.902;2024-02-26T08:25:57;12.57;;;2.87;;
4835;SDS011;66719;51.226;6.902;2024-02-26T08:28:24;7.80;;;2.97;;
4835;SDS011;66719;51.226;6.902;2024-02-26T08:30:51;8.17;;;2.97;;
4835;SDS011;66719;51.226;6.902;2024-02-26T08:33:17;8.67;;;2.73;;
4835;SDS011;66719;51.226;6.902;2024-02-26T08:35:44;11.73;;;3.23;;
4835;SDS011;66719;51.226;6.902;2024-02-26T08:38:11;10.47;;;3.20;;
4835;SDS011;66719;51.226;6.902;2024-02-26T08:40:38;7.90;;;2.90;;
4835;SDS011;66719;51.226;6.902;2024-02-26T08:43:04;9.10;;;2.63;;
4835;SDS011;66719;51.226;6.902;2024-02-26T08:45:31;7.57;;;2.77;;
4835;SDS011;66719;51.226;6.902;2024-02-26T08:47:58;10.70;;;2.57;;
4835;SDS011;66719;51.226;6.902;2024-02-26T08:50:25;13.50;;;3.17;;
4835;SDS011;66719;51.226;6.902;2024-02-26T08:52:53;7.70;;;2.80;;
4835;SDS011;66719;51.226;6.902;2024-02-26T08:55:19;9.83;;;3.07;;
4835;SDS011;66719;51.226;6.902;2024-02-26T08:57:46;9.50;;;2.87;;
4835;SDS011;66719;51.226;6.902;2024-02-26T09:00:14;8.23;;;2.60;;
4835;SDS011;66719;51.226;6.902;2024-02-26T09:02:44;7.67;;;2.70;;
4835;SDS011;66719;51.226;6.902;2024-02-26T09:05:11;8.37;;;2.80;;
4835;SDS011;66719;51.226;6.902;2024-02-26T09:07:37;11.20;;;3.10;;
4835;SDS011;66719;51.226;6.902;2024-02-26T09:10:05;7.97;;;2.90;;
4835;SDS011;66719;51.226;6.902;2024-02-26T09:12:32;7.63;;;2.80;;
4835;SDS011;66719;51.226;6.902;2024-02-26T09:14:59;10.70;;;3.00;;
4835;SDS011;66719;51.226;6.902;2024-02-26T09:17:25;7.30;;;2.83;;
4835;SDS011;66719;51.226;6.902;2024-02-26T09:19:52;8.57;;;2.50;;
4835;SDS011;66719;51.226;6.902;2024-02-26T09:22:19;7.87;;;2.90;;
4835;SDS011;66719;51.226;6.902;2024-02-26T09:24:45;9.50;;;2.70;;
4835;SDS011;66719;51.226;6.902;2024-02-26T09:27:12;9.40;;;3.33;;
4835;SDS011;66719;51.226;6.902;2024-02-26T09:29:39;10.60;;;3.23;;
4835;SDS011;66719;51.226;6.902;2024-02-26T09:32:05;10.33;;;3.00;;
4835;SDS011;66719;51.226;6.902;2024-02-26T09:34:32;9.50;;;2.57;;
4835;SDS011;66719;51.226;6.902;2024-02-26T09:37:00;8.57;;;3.43;;
4835;SDS011;66719;51.226;6.902;2024-02-26T09:39:40;8.63;;;2.57;;
4835;SDS011;66719;51.226;6.902;2024-02-26T09:42:07;8.10;;;3.20;;
4835;SDS011;66719;51.226;6.902;2024-02-26T09:44:36;9.80;;;3.57;;
4835;SDS011;66719;51.226;6.902;2024-02-26T09:47:11;7.47;;;2.40;;
4835;SDS011;66719;51.226;6.902;2024-02-26T09:49:39;7.83;;;2.53;;
4835;SDS011;66719;51.226;6.902;2024-02-26T09:52:06;10.93;;;3.00;;
4835;SDS011;66719;51.226;6.902;2024-02-26T09:54:35;8.70;;;2.77;;
4835;SDS011;66719;51.226;6.902;2024-02-26T09:57:02;8.10;;;2.73;;
4835;SDS011;66719;51.226;6.902;2024-02-26T09:59:38;8.70;;;2.93;;
4835;SDS011;66719;51.226;6.902;2024-02-26T10:02:11;10.30;;;2.70;;
4835;SDS011;66719;51.226;6.902;2024-02-26T10:04:39;8.10;;;3.00;;
4835;SDS011;66719;51.226;6.902;2024-02-26T10:07:13;8.13;;;3.00;;
4835;SDS011;66719;51.226;6.902;2024-02-26T10:09:40;9.80;;;3.10;;
4835;SDS011;66719;51.226;6.902;2024-02-26T10:12:08;10.73;;;2.67;;
4835;SDS011;66719;51.226;6.902;2024-02-26T10:14:36;8.03;;;2.97;;
4835;SDS011;66719;51.226;6.902;2024-02-26T10:17:04;8.60;;;2.60;;
4835;SDS011;66719;51.226;6.902;2024-02-26T10:19:35;8.00;;;2.60;;
4835;SDS011;66719;51.226;6.902;2024-02-26T10:22:04;8.40;;;3.00;;
4835;SDS011;66719;51.226;6.902;2024-02-26T10:24:32;7.40;;;2.50;;
4835;SDS011;66719;51.226;6.902;2024-02-26T10:26:59;7.67;;;2.83;;
4835;SDS011;66719;51.226;6.902;2024-02-26T10:29:25;7.93;;;2.83;;
4835;SDS011;66719;51.226;6.902;2024-02-26T10:31:52;9.73;;;3.37;;
4835;SDS011;66719;51.226;6.902;2024-02-26T10:34:19;8.97;;;3.30;;
4835;SDS011;66719;51.226;6.902;2024-02-26T10:36:47;8.70;;;2.70;;
4835;SDS011;66719;51.226;6.902;2024-02-26T10:39:19;10.50;;;3.60;;
4835;SDS011;66719;51.226;6.902;2024-02-26T10:41:46;8.70;;;2.90;;
4835;SDS011;66719;51.226;6.902;2024-02-26T10:44:13;9.10;;;3.10;;
4835;SDS011;66719;51.226;6.902;2024-02-26T10:46:44;7.97;;;3.40;;
4835;SDS011;66719;51.226;6.902;2024-02-26T10:49:14;11.23;;;3.37;;
4835;SDS011;66719;51.226;6.902;2024-02-26T10:51:55;10.17;;;3.60;;
4835;SDS011;66719;51.226;6.902;2024-02-26T10:54:24;7.23;;;2.40;;
4835;SDS011;66719;51.226;6.902;2024-02-26T10:56:54;8.00;;;3.27;;
4835;SDS011;66719;51.226;6.902;2024-02-26T10:59:23;9.83;;;3.77;;
4835;SDS011;66719;51.226;6.902;2024-02-26T11:01:50;9.10;;;3.30;;
4835;SDS011;66719;51.226;6.902;2024-02-26T11:04:18;7.70;;;3.40;;
4835;SDS011;66719;51.226;6.902;2024-02-26T11:06:46;9.13;;;3.43;;
4835;SDS011;66719;51.226;6.902;2024-02-26T11:09:14;9.40;;;3.43;;
4835;SDS011;66719;51.226;6.902;2024-02-26T11:11:42;8.40;;;3.43;;
4835;SDS011;66719;51.226;6.902;2024-02-26T11:14:09;11.70;;;3.60;;
4835;SDS011;66719;51.226;6.902;2024-02-26T11:16:36;9.00;;;3.30;;
4835;SDS011;66719;51.226;6.902;2024-02-26T11:19:06;7.40;;;3.20;;
4835;SDS011;66719;51.226;6.902;2024-02-26T11:21:35;8.20;;;3.30;;
4835;SDS011;66719;51.226;6.902;2024-02-26T11:24:08;10.80;;;3.60;;
4835;SDS011;66719;51.226;6.902;2024-02-26T11:26:42;9.53;;;3.70;;
4835;SDS011;66719;51.226;6.902;2024-02-26T11:29:15;8.60;;;3.63;;
4835;SDS011;66719;51.226;6.902;2024-02-26T11:31:46;8.83;;;3.93;;
4835;SDS011;66719;51.226;6.902;2024-02-26T11:34:14;10.13;;;3.73;;
4835;SDS011;66719;51.226;6.902;2024-02-26T11:36:41;9.20;;;4.07;;
4835;SDS011;66719;51.226;6.902;2024-02-26T11:39:08;9.10;;;4.30;;
4835;SDS011;66719;51.226;6.902;2024-02-26T11:41:38;13.10;;;4.30;;
4835;SDS011;66719;51.226;6.902;2024-02-26T11:44:05;14.50;;;6.17;;
4835;SDS011;66719;51.226;6.902;2024-02-26T11:46:42;14.00;;;4.47;;
4835;SDS011;66719;51.226;6.902;2024-02-26T11:51:55;21.57;;;7.13;;
4835;SDS011;66719;51.226;6.902;2024-02-26T11:57:23;12.23;;;5.10;;
4835;SDS011;66719;51.226;6.902;2024-02-26T12:00:10;11.30;;;4.77;;
4835;SDS011;66719;51.226;6.902;2024-02-26T12:07:47;13.80;;;5.00;;
4835;SDS011;66719;51.226;6.902;2024-02-26T12:10:16;10.80;;;5.03;;
4835;SDS011;66719;51.226;6.902;2024-02-26T12:12:48;14.70;;;5.53;;
4835;SDS011;66719;51.226;6.902;2024-02-26T12:15:15;11.50;;;5.70;;
4835;SDS011;66719;51.226;6.902;2024-02-26T12:17:43;19.37;;;7.10;;
4835;SDS011;66719;51.226;6.902;2024-02-26T12:20:16;11.90;;;5.83;;
4835;SDS011;66719;51.226;6.902;2024-02-26T12:22:44;11.10;;;5.63;;
4835;SDS011;66719;51.226;6.902;2024-02-26T12:25:14;11.80;;;6.53;;
4835;SDS011;66719;51.226;6.902;2024-02-26T12:27:41;12.63;;;6.10;;
4835;SDS011;66719;51.226;6.902;2024-02-26T12:30:08;16.93;;;6.50;;
4835;SDS011;66719;51.226;6.902;2024-02-26T12:32:35;14.27;;;6.73;;
4835;SDS011;66719;51.226;6.902;2024-02-26T12:35:02;12.90;;;6.57;;
4835;SDS011;66719;51.226;6.902;2024-02-26T12:37:30;12.20;;;5.63;;
4835;SDS011;66719;51.226;6.902;2024-02-26T12:39:57;11.97;;;6.10;;
4835;SDS011;66719;51.226;6.902;2024-02-26T12:42:24;14.00;;;6.13;;
4835;SDS011;66719;51.226;6.902;2024-02-26T12:44:51;11.00;;;5.97;;
4835;SDS011;66719;51.226;6.902;2024-02-26T12:47:19;12.03;;;6.57;;
4835;SDS011;66719;51.226;6.902;2024-02-26T12:49:48;23.73;;;7.40;;
4835;SDS011;66719;51.226;6.902;2024-02-26T12:52:16;13.80;;;7.20;;
4835;SDS011;66719;51.226;6.902;2024-02-26T12:54:43;14.97;;;7.73;;
4835;SDS011;66719;51.226;6.902;2024-02-26T12:57:10;14.50;;;7.80;;
4835;SDS011;66719;51.226;6.902;2024-02-26T12:59:37;14.67;;;7.90;;
4835;SDS011;66719;51.226;6.902;2024-02-26T13:02:05;14.27;;;8.17;;
4835;SDS011;66719;51.226;6.902;2024-02-26T13:04:33;17.70;;;8.30;;
4835;SDS011;66719;51.226;6.902;2024-02-26T13:07:03;15.03;;;8.23;;
4835;SDS011;66719;51.226;6.902;2024-02-26T13:09:35;16.50;;;8.60;;
4835;SDS011;66719;51.226;6.902;2024-02-26T13:12:06;18.13;;;9.07;;
4835;SDS011;66719;51.226;6.902;2024-02-26T13:14:33;18.00;;;9.23;;
4835;SDS011;66719;51.226;6.902;2024-02-26T13:17:00;16.37;;;8.60;;
4835;SDS011;66719;51.226;6.902;2024-02-26T13:19:28;13.73;;;7.90;;
4835;SDS011;66719;51.226;6.902;2024-02-26T13:21:55;19.80;;;8.77;;
4835;SDS011;66719;51.226;6.902;2024-02-26T13:24:22;14.87;;;7.93;;
4835;SDS011;66719;51.226;6.902;2024-02-26T13:26:54;18.07;;;8.30;;
4835;SDS011;66719;51.226;6.902;2024-02-26T13:29:22;15.70;;;7.90;;
4835;SDS011;66719;51.226;6.902;2024-02-26T13:31:57;14.20;;;8.40;;
4835;SDS011;66719;51.226;6.902;2024-02-26T13:34:25;14.37;;;8.00;;
4835;SDS011;66719;51.226;6.902;2024-02-26T13:36:53;14.87;;;7.63;;
4835;SDS011;66719;51.226;6.902;2024-02-26T13:39:24;20.40;;;8.97;;
4835;SDS011;66719;51.226;6.902;2024-02-26T13:41:52;14.30;;;8.47;;
4835;SDS011;66719;51.226;6.902;2024-02-26T13:44:20;16.90;;;8.63;;
4835;SDS011;66719;51.226;6.902;2024-02-26T13:46:47;13.73;;;8.77;;
4835;SDS011;66719;51.226;6.902;2024-02-26T13:49:15;14.97;;;8.57;;
4835;SDS011;66719;51.226;6.902;2024-02-26T13:51:42;18.33;;;8.57;;
4835;SDS011;66719;51.226;6.902;2024-02-26T13:54:09;15.70;;;8.67;;
4835;SDS011;66719;51.226;6.902;2024-02-26T13:56:37;13.50;;;7.57;;
4835;SDS011;66719;51.226;6.902;2024-02-26T13:59:04;15.70;;;8.00;;
4835;SDS011;66719;51.226;6.902;2024-02-26T14:01:31;15.80;;;7.63;;
4835;SDS011;66719;51.226;6.902;2024-02-26T14:04:00;17.73;;;8.63;;
4835;SDS011;66719;51.226;6.902;2024-02-26T14:06:28;15.40;;;8.10;;
4835;SDS011;66719;51.226;6.902;2024-02-26T14:08:57;14.90;;;8.00;;
4835;SDS011;66719;51.226;6.902;2024-02-26T14:11:24;17.47;;;8.53;;
4835;SDS011;66719;51.226;6.902;2024-02-26T14:13:51;15.93;;;8.43;;
4835;SDS011;66719;51.226;6.902;2024-02-26T14:16:18;15.97;;;7.40;;
4835;SDS011;66719;51.226;6.902;2024-02-26T14:18:46;13.73;;;7.00;;
4835;SDS011;66719;51.226;6.902;2024-02-26T14:21:13;14.60;;;7.93;;
4835;SDS011;66719;51.226;6.902;2024-02-26T14:23:40;13.00;;;7.40;;
4835;SDS011;66719;51.226;6.902;2024-02-26T14:26:08;14.17;;;6.63;;
4835;SDS011;66719;51.226;6.902;2024-02-26T14:28:35;17.50;;;7.53;;
4835;SDS011;66719;51.226;6.902;2024-02-26T14:31:02;13.67;;;7.00;;
4835;SDS011;66719;51.226;6.902;2024-02-26T14:33:30;15.20;;;6.70;;
4835;SDS011;66719;51.226;6.902;2024-02-26T14:35:57;14.03;;;6.80;;
4835;SDS011;66719;51.226;6.902;2024-02-26T14:38:24;15.30;;;7.20;;
4835;SDS011;66719;51.226;6.902;2024-02-26T14:40:51;13.77;;;6.80;;
4835;SDS011;66719;51.226;6.902;2024-02-26T14:43:17;17.40;;;7.43;;
4835;SDS011;66719;51.226;6.902;2024-02-26T14:45:44;14.70;;;6.53;;
4835;SDS011;66719;51.226;6.902;2024-02-26T14:48:10;12.87;;;6.90;;
4835;SDS011;66719;51.226;6.902;2024-02-26T14:50:38;14.07;;;7.10;;
4835;SDS011;66719;51.226;6.902;2024-02-26T14:53:04;14.30;;;6.07;;
4835;SDS011;66719;51.226;6.902;2024-02-26T14:55:31;12.97;;;6.47;;
4835;SDS011;66719;51.226;6.902;2024-02-26T14:57:58;13.50;;;5.87;;
4835;SDS011;66719;51.226;6.902;2024-02-26T15:00:25;12.70;;;6.40;;
4835;SDS011;66719;51.226;6.902;2024-02-26T15:02:52;12.57;;;6.60;;
4835;SDS011;66719;51.226;6.902;2024-02-26T15:05:21;13.77;;;6.87;;
4835;SDS011;66719;51.226;6.902;2024-02-26T15:07:47;19.20;;;6.47;;